createdAt,value
2022-12-20T00:01:55.436Z,26.51
2022-12-20T00:04:23.858Z,26.68
2022-12-20T00:06:51.725Z,26.80
2022-12-20T00:09:19.605Z,26.17
2022-12-20T00:11:47.473Z,26.20
2022-12-20T00:14:17.133Z,26.49
2022-12-20T00:16:45.056Z,26.44
2022-12-20T00:19:13.044Z,26.62
2022-12-20T00:21:40.950Z,26.28
2022-12-20T00:24:09.279Z,26.40
2022-12-20T00:26:38.057Z,26.67
2022-12-20T00:29:06.489Z,26.37
2022-12-20T00:31:35.966Z,26.87
2022-12-20T00:34:04.218Z,26.65
2022-12-20T00:36:32.593Z,26.56
2022-12-20T00:39:01.409Z,26.87
2022-12-20T00:41:30.291Z,26.71
2022-12-20T00:43:58.694Z,26.68
2022-12-20T00:46:26.789Z,26.86
2022-12-20T00:48:56.803Z,26.60
2022-12-20T00:51:25.949Z,26.33
2022-12-20T00:53:54.499Z,26.32
2022-12-20T00:56:22.434Z,26.42
2022-12-20T00:58:50.311Z,26.48
2022-12-20T01:01:20.555Z,26.54
2022-12-20T01:03:48.920Z,26.68
2022-12-20T01:06:18.311Z,26.63
2022-12-20T01:08:46.257Z,26.39
2022-12-20T01:11:14.831Z,26.85
2022-12-20T01:13:44.459Z,26.64
2022-12-20T01:16:13.750Z,26.57
2022-12-20T01:18:41.671Z,26.45
2022-12-20T01:21:10.306Z,26.63
2022-12-20T01:23:40.441Z,26.37
2022-12-20T01:26:10.939Z,26.52
2022-12-20T01:28:38.902Z,26.54
2022-12-20T01:31:07.796Z,26.62
2022-12-20T01:33:36.157Z,26.81
2022-12-20T01:36:05.014Z,26.96
2022-12-20T01:38:32.967Z,26.95
2022-12-20T01:41:02.330Z,26.51
2022-12-20T01:43:47.204Z,26.87
2022-12-20T01:46:15.162Z,26.42
2022-12-20T01:48:43.488Z,26.72
2022-12-20T01:51:11.384Z,26.86
2022-12-20T01:53:39.669Z,26.62
2022-12-20T01:56:09.318Z,26.66
2022-12-20T01:58:37.295Z,26.90
2022-12-20T02:01:05.232Z,26.54
2022-12-20T02:03:33.632Z,26.63
2022-12-20T02:06:15.396Z,26.57
2022-12-20T02:08:43.281Z,26.84
2022-12-20T02:11:17.386Z,26.94
2022-12-20T02:13:49.107Z,26.77
2022-12-20T02:16:21.540Z,27.02
2022-12-20T02:18:52.693Z,27.00
2022-12-20T02:21:26.662Z,26.51
2022-12-20T02:24:26.526Z,26.80
2022-12-20T02:27:18.987Z,26.64
2022-12-20T02:30:10.045Z,26.92
2022-12-20T02:32:40.699Z,27.05
2022-12-20T02:35:09.303Z,27.08
2022-12-20T02:37:37.202Z,26.97
2022-12-20T02:40:05.841Z,26.86
2022-12-20T02:42:34.168Z,26.65
2022-12-20T02:45:17.442Z,26.70
2022-12-20T02:47:50.137Z,26.76
2022-12-20T02:50:19.899Z,26.70
2022-12-20T02:52:48.148Z,26.73
2022-12-20T02:55:16.121Z,26.71
2022-12-20T02:57:46.737Z,27.12
2022-12-20T03:00:17.388Z,27.02
2022-12-20T03:03:03.383Z,26.59
2022-12-20T03:05:31.392Z,26.83
2022-12-20T03:07:59.691Z,27.06
2022-12-20T03:10:27.612Z,26.81
2022-12-20T03:12:56.014Z,27.16
2022-12-20T03:15:25.290Z,26.78
2022-12-20T03:17:53.147Z,26.91
2022-12-20T03:20:20.979Z,26.64
2022-12-20T03:22:49.158Z,26.73
2022-12-20T03:25:17.746Z,26.64
2022-12-20T03:27:45.782Z,26.71
2022-12-20T03:30:15.200Z,27.11
2022-12-20T03:32:44.860Z,26.91
2022-12-20T03:35:12.747Z,27.21
2022-12-20T03:37:40.636Z,26.73
2022-12-20T03:40:09.571Z,27.21
2022-12-20T03:42:37.796Z,26.94
2022-12-20T03:45:08.996Z,27.00
2022-12-20T03:47:36.905Z,26.66
2022-12-20T03:50:07.417Z,26.78
2022-12-20T03:52:35.704Z,27.15
2022-12-20T03:55:03.659Z,26.76
2022-12-20T03:57:31.538Z,27.33
2022-12-20T03:59:59.446Z,26.90
2022-12-20T04:02:27.532Z,27.02
2022-12-20T04:04:55.587Z,27.21
2022-12-20T04:07:24.906Z,26.83
2022-12-20T04:09:52.791Z,27.09
2022-12-20T04:12:20.681Z,26.83
2022-12-20T04:14:48.842Z,26.93
2022-12-20T04:17:16.759Z,27.41
2022-12-20T04:19:44.637Z,27.15
2022-12-20T04:22:12.527Z,27.14
2022-12-20T04:24:42.064Z,27.12
2022-12-20T04:27:10.065Z,26.79
2022-12-20T04:29:37.997Z,27.32
2022-12-20T04:32:06.109Z,26.87
2022-12-20T04:34:34.244Z,26.91
2022-12-20T04:37:02.163Z,27.00
2022-12-20T04:39:30.082Z,27.12
2022-12-20T04:41:59.383Z,26.85
2022-12-20T04:44:27.872Z,27.25
2022-12-20T04:46:55.793Z,27.16
2022-12-20T04:49:23.744Z,27.43
2022-12-20T04:51:51.625Z,27.29
2022-12-20T04:54:18.802Z,27.46
2022-12-20T04:56:46.656Z,27.24
2022-12-20T04:59:15.959Z,27.10
2022-12-20T05:01:43.903Z,26.99
2022-12-20T05:04:12.267Z,27.49
2022-12-20T05:06:40.287Z,27.17
2022-12-20T05:09:08.206Z,27.09
2022-12-20T05:11:36.174Z,27.10
2022-12-20T05:14:04.347Z,27.24
2022-12-20T05:16:33.620Z,26.96
2022-12-20T05:19:03.260Z,27.44
2022-12-20T05:21:48.660Z,27.54
2022-12-20T05:24:33.915Z,27.26
2022-12-20T05:27:01.862Z,27.59
2022-12-20T05:29:29.833Z,27.29
2022-12-20T05:31:59.059Z,27.44
2022-12-20T05:34:27.348Z,27.54
2022-12-20T05:36:55.361Z,27.52
2022-12-20T05:39:23.258Z,27.22
2022-12-20T05:41:51.429Z,27.48
2022-12-20T05:44:20.266Z,27.08
2022-12-20T05:46:48.245Z,27.29
2022-12-20T05:49:17.942Z,27.54
2022-12-20T05:51:45.794Z,27.66
2022-12-20T05:54:13.988Z,27.47
2022-12-20T05:56:41.885Z,27.24
2022-12-20T05:59:09.822Z,27.36
2022-12-20T06:01:37.852Z,27.46
2022-12-20T06:04:06.340Z,27.50
2022-12-20T06:06:35.693Z,27.77
2022-12-20T06:09:03.574Z,27.49
2022-12-20T06:11:31.522Z,27.64
2022-12-20T06:13:59.891Z,27.61
2022-12-20T06:16:27.865Z,27.53
2022-12-20T06:18:55.843Z,27.47
2022-12-20T06:21:23.865Z,27.29
2022-12-20T06:23:53.498Z,27.54
2022-12-20T06:26:23.155Z,27.53
2022-12-20T06:28:52.769Z,27.28
2022-12-20T06:31:20.773Z,27.26
2022-12-20T06:33:49.061Z,27.16
2022-12-20T06:36:16.941Z,27.84
2022-12-20T06:38:44.805Z,27.22
2022-12-20T06:41:14.082Z,27.43
2022-12-20T06:43:42.350Z,27.65
2022-12-20T06:46:11.627Z,27.81
2022-12-20T06:48:39.497Z,27.77
2022-12-20T06:51:07.888Z,27.28
2022-12-20T06:53:36.363Z,27.32
2022-12-20T06:56:04.405Z,27.70
2022-12-20T06:58:33.662Z,27.36
2022-12-20T07:01:01.697Z,27.54
2022-12-20T07:03:30.088Z,27.67
2022-12-20T07:05:58.036Z,27.81
2022-12-20T07:08:26.061Z,27.58
2022-12-20T07:10:54.632Z,27.46
2022-12-20T07:13:22.774Z,27.45
2022-12-20T07:15:59.333Z,27.34
2022-12-20T07:18:27.247Z,27.32
2022-12-20T07:20:55.165Z,27.82
2022-12-20T07:23:23.380Z,27.66
2022-12-20T07:25:55.603Z,27.33
2022-12-20T07:28:23.720Z,27.58
2022-12-20T07:30:55.467Z,27.41
2022-12-20T07:33:23.671Z,27.36
2022-12-20T07:35:54.917Z,27.87
2022-12-20T07:38:22.887Z,27.54
2022-12-20T07:40:50.856Z,27.47
2022-12-20T07:43:19.032Z,27.43
2022-12-20T07:45:47.636Z,27.61
2022-12-20T07:48:21.585Z,27.92
2022-12-20T07:50:49.986Z,27.67
2022-12-20T07:53:18.972Z,27.35
2022-12-20T07:55:46.828Z,27.87
2022-12-20T07:58:14.728Z,27.43
2022-12-20T08:00:42.661Z,27.60
2022-12-20T08:03:12.874Z,27.46
2022-12-20T08:05:43.376Z,27.47
2022-12-20T08:08:11.253Z,27.59
2022-12-20T08:10:39.255Z,27.90
2022-12-20T08:13:07.449Z,28.00
2022-12-20T08:15:35.357Z,27.84
2022-12-20T08:18:03.281Z,27.67
2022-12-20T08:20:31.285Z,27.98
2022-12-20T08:23:00.845Z,27.69
2022-12-20T08:25:28.771Z,28.02
2022-12-20T08:27:56.806Z,27.86
2022-12-20T08:30:24.731Z,27.49
2022-12-20T08:32:52.908Z,27.92
2022-12-20T08:35:20.851Z,28.00
2022-12-20T08:37:48.742Z,27.87
2022-12-20T08:40:18.983Z,27.60
2022-12-20T08:42:47.200Z,27.90
2022-12-20T08:45:15.318Z,27.50
2022-12-20T08:47:43.157Z,27.52
2022-12-20T08:50:11.767Z,27.54
2022-12-20T08:52:40.235Z,27.88
2022-12-20T08:55:08.658Z,27.64
2022-12-20T08:57:38.010Z,27.53
2022-12-20T09:00:07.990Z,27.81
2022-12-20T09:02:38.293Z,27.51
2022-12-20T09:05:06.785Z,27.84
2022-12-20T09:07:34.706Z,27.52
2022-12-20T09:10:03.182Z,27.90
2022-12-20T09:12:31.607Z,27.52
2022-12-20T09:15:00.888Z,28.05
2022-12-20T09:17:28.815Z,27.66
2022-12-20T09:19:56.703Z,27.76
2022-12-20T09:22:24.584Z,27.86
2022-12-20T09:24:53.655Z,27.65
2022-12-20T09:27:21.603Z,27.52
2022-12-20T09:29:49.519Z,27.84
2022-12-20T09:32:18.819Z,27.83
2022-12-20T09:34:48.216Z,27.85
2022-12-20T09:37:16.047Z,27.59
2022-12-20T09:39:43.961Z,27.56
2022-12-20T09:42:11.844Z,27.88
2022-12-20T09:44:41.057Z,28.07
2022-12-20T09:47:11.444Z,27.62
2022-12-20T09:49:42.566Z,28.05
2022-12-20T09:52:22.552Z,27.89
2022-12-20T09:54:53.789Z,27.81
2022-12-20T09:57:25.106Z,28.01
2022-12-20T09:59:53.010Z,27.95
2022-12-20T10:05:14.772Z,27.52
2022-12-20T10:07:54.810Z,27.97
2022-12-20T10:10:42.699Z,27.57
2022-12-20T10:13:18.100Z,27.92
2022-12-20T10:15:48.491Z,28.05
2022-12-20T10:18:23.127Z,27.54
2022-12-20T10:20:58.698Z,28.16
2022-12-20T10:23:32.983Z,28.06
2022-12-20T10:26:01.784Z,28.13
2022-12-20T10:28:30.710Z,27.88
2022-12-20T10:31:00.796Z,28.15
2022-12-20T10:33:29.129Z,28.17
2022-12-20T10:35:59.344Z,27.86
2022-12-20T10:38:27.615Z,27.69
2022-12-20T10:41:20.687Z,27.76
2022-12-20T10:43:50.909Z,28.00
2022-12-20T10:46:18.898Z,28.17
2022-12-20T10:48:47.785Z,28.13
2022-12-20T10:51:18.511Z,27.75
2022-12-20T10:53:54.658Z,28.07
2022-12-20T10:56:24.190Z,27.58
2022-12-20T10:58:56.907Z,27.93
2022-12-20T11:01:26.837Z,28.03
2022-12-20T11:03:57.329Z,28.18
2022-12-20T11:06:28.415Z,27.83
2022-12-20T11:09:18.871Z,27.66
2022-12-20T11:12:04.139Z,28.05
2022-12-20T11:14:38.729Z,27.79
2022-12-20T11:17:16.189Z,27.91
2022-12-20T11:19:51.854Z,28.17
2022-12-20T11:22:27.579Z,28.05
2022-12-20T11:24:59.167Z,27.67
2022-12-20T11:27:30.314Z,27.70
2022-12-20T11:30:11.155Z,27.74
2022-12-20T11:33:08.277Z,28.29
2022-12-20T11:35:42.638Z,28.01
2022-12-20T11:38:15.796Z,28.11
2022-12-20T11:40:45.246Z,27.91
2022-12-20T11:43:23.643Z,27.76
2022-12-20T11:46:00.303Z,28.29
2022-12-20T11:48:36.894Z,28.32
2022-12-20T11:51:08.690Z,28.35
2022-12-20T11:53:43.218Z,28.28
2022-12-20T11:56:12.308Z,28.27
2022-12-20T11:58:47.706Z,28.01
2022-12-20T12:01:17.695Z,27.91
2022-12-20T12:03:47.649Z,28.04
2022-12-20T12:06:18.986Z,28.15
2022-12-20T12:08:51.107Z,27.82
2022-12-20T12:12:03.815Z,27.97
2022-12-20T12:14:11.249Z,28.20
2022-12-20T12:16:40.753Z,28.30
2022-12-20T12:19:10.157Z,28.28
2022-12-20T12:21:40.107Z,27.94
2022-12-20T12:24:15.252Z,27.81
2022-12-20T12:26:43.208Z,28.05
2022-12-20T12:29:12.547Z,28.30
2022-12-20T12:31:41.925Z,27.96
2022-12-20T12:34:15.361Z,28.27
2022-12-20T12:36:55.198Z,28.39
2022-12-20T12:39:58.326Z,27.83
2022-12-20T12:42:59.948Z,28.35
2022-12-20T12:45:28.462Z,28.21
2022-12-20T12:47:59.493Z,28.02
2022-12-20T12:50:29.348Z,28.34
2022-12-20T12:52:58.335Z,28.19
2022-12-20T12:55:47.563Z,28.10
2022-12-20T12:58:34.270Z,27.98
2022-12-20T13:01:05.076Z,28.45
2022-12-20T13:03:47.864Z,28.06
2022-12-20T13:07:04.339Z,28.30
2022-12-20T13:09:40.261Z,28.18
2022-12-20T13:12:50.778Z,28.08
2022-12-20T13:15:51.936Z,27.86
2022-12-20T13:18:26.934Z,27.91
2022-12-20T13:21:26.204Z,27.83
2022-12-20T13:24:20.852Z,28.42
2022-12-20T13:26:52.832Z,28.39
2022-12-20T13:29:25.331Z,28.42
2022-12-20T13:31:54.910Z,28.10
2022-12-20T13:34:41.370Z,27.97
2022-12-20T13:37:28.097Z,28.37
2022-12-20T13:39:56.046Z,28.43
2022-12-20T13:42:33.997Z,27.88
2022-12-20T13:45:03.319Z,28.42
2022-12-20T13:47:41.973Z,28.29
2022-12-20T13:50:28.896Z,28.41
2022-12-20T13:52:57.598Z,27.91
2022-12-20T13:55:31.737Z,28.02
2022-12-20T13:57:59.698Z,27.86
2022-12-20T14:00:27.592Z,28.22
2022-12-20T14:02:57.362Z,27.87
2022-12-20T14:05:26.558Z,28.05
2022-12-20T14:07:58.093Z,28.44
2022-12-20T14:10:26.677Z,27.94
2022-12-20T14:12:54.811Z,28.37
2022-12-20T14:15:27.572Z,28.17
2022-12-20T14:17:57.049Z,28.45
2022-12-20T14:20:27.224Z,28.44
2022-12-20T14:23:04.162Z,28.51
2022-12-20T14:25:38.927Z,28.56
2022-12-20T14:28:06.918Z,28.18
2022-12-20T14:30:37.595Z,28.35
2022-12-20T14:33:07.198Z,28.27
2022-12-20T14:35:35.079Z,28.26
2022-12-20T14:38:04.225Z,28.22
2022-12-20T14:40:32.316Z,28.09
2022-12-20T14:43:01.211Z,28.46
2022-12-20T14:45:29.189Z,27.99
2022-12-20T14:47:59.599Z,28.56
2022-12-20T14:50:35.894Z,28.02
2022-12-20T14:53:04.161Z,27.97
2022-12-20T14:55:36.502Z,28.38
2022-12-20T14:58:07.933Z,28.44
2022-12-20T15:00:35.899Z,28.36
2022-12-20T15:03:05.027Z,28.03
2022-12-20T15:05:50.354Z,28.65
2022-12-20T15:08:20.413Z,28.09
2022-12-20T15:10:51.292Z,28.29
2022-12-20T15:13:20.481Z,28.53
2022-12-20T15:15:48.434Z,28.21
2022-12-20T15:18:17.263Z,28.18
2022-12-20T15:20:45.775Z,28.03
2022-12-20T15:23:16.512Z,28.58
2022-12-20T15:25:44.708Z,28.26
2022-12-20T15:28:17.774Z,28.08
2022-12-20T15:30:46.332Z,28.10
2022-12-20T15:33:18.523Z,28.06
2022-12-20T15:35:46.398Z,28.61
2022-12-20T15:38:25.547Z,28.09
2022-12-20T15:41:05.559Z,28.28
2022-12-20T15:43:38.858Z,28.60
2022-12-20T15:46:07.257Z,28.39
2022-12-20T15:48:35.215Z,28.33
2022-12-20T15:51:03.224Z,28.22
2022-12-20T15:53:34.169Z,28.69
2022-12-20T15:56:02.125Z,28.69
2022-12-20T15:58:30.047Z,28.45
2022-12-20T16:00:59.954Z,28.58
2022-12-20T16:03:30.205Z,28.37
2022-12-20T16:05:58.240Z,28.26
2022-12-20T16:08:26.142Z,28.21
2022-12-20T16:10:55.454Z,28.69
2022-12-20T16:13:24.779Z,28.30
2022-12-20T16:15:52.756Z,28.62
2022-12-20T16:18:20.771Z,28.51
2022-12-20T16:20:48.809Z,28.26
2022-12-20T16:23:19.029Z,28.41
2022-12-20T16:25:46.990Z,28.32
2022-12-20T16:28:16.293Z,28.74
2022-12-20T16:30:50.957Z,28.41
2022-12-20T16:33:21.660Z,28.35
2022-12-20T16:35:49.550Z,28.53
2022-12-20T16:38:18.213Z,28.80
2022-12-20T16:40:46.122Z,28.76
2022-12-20T16:43:18.263Z,28.75
2022-12-20T16:45:46.213Z,28.69
2022-12-20T16:48:14.081Z,28.49
2022-12-20T16:50:43.500Z,28.37
2022-12-20T16:53:15.426Z,28.63
2022-12-20T16:55:43.393Z,28.33
2022-12-20T16:58:12.281Z,28.49
2022-12-20T17:00:41.614Z,28.64
2022-12-20T17:03:10.108Z,28.86
2022-12-20T17:05:39.595Z,28.51
2022-12-20T17:10:53.428Z,28.35
2022-12-20T17:13:21.637Z,28.68
2022-12-20T17:15:50.979Z,28.58
2022-12-20T17:18:18.892Z,28.47
2022-12-20T17:20:46.800Z,28.80
2022-12-20T17:26:01.280Z,28.81
2022-12-20T17:28:29.664Z,28.82
2022-12-20T17:31:05.842Z,28.99
2022-12-20T17:33:36.149Z,28.68
2022-12-20T17:36:04.348Z,28.80
2022-12-20T17:38:32.256Z,28.79
2022-12-20T17:41:00.155Z,28.40
2022-12-20T17:43:28.329Z,28.48
2022-12-20T17:45:56.294Z,28.44
2022-12-20T17:48:32.186Z,28.79
2022-12-20T17:51:01.863Z,29.01
2022-12-20T17:53:30.078Z,28.28
2022-12-20T17:55:58.417Z,28.43
2022-12-20T17:58:26.307Z,28.47
2022-12-20T18:00:54.253Z,28.53
2022-12-20T18:04:01.571Z,28.50
2022-12-20T18:06:12.121Z,28.50
2022-12-20T18:08:40.175Z,28.40
2022-12-20T18:11:08.240Z,28.44
2022-12-20T18:13:36.668Z,28.65
2022-12-20T18:16:08.164Z,28.88
2022-12-20T18:18:37.163Z,28.63
2022-12-20T18:21:05.925Z,28.91
2022-12-20T18:23:35.810Z,29.20
2022-12-20T18:26:08.424Z,29.01
2022-12-20T18:28:36.607Z,28.77
2022-12-20T18:31:05.097Z,28.95
2022-12-20T18:33:33.295Z,28.94
2022-12-20T18:36:02.257Z,29.33
2022-12-20T18:38:30.133Z,29.06
2022-12-20T18:41:00.905Z,28.99
2022-12-20T18:43:30.470Z,28.86
2022-12-20T18:45:58.483Z,28.46
2022-12-20T18:48:26.405Z,28.85
2022-12-20T18:50:54.407Z,28.98
2022-12-20T18:53:22.574Z,28.68
2022-12-20T18:55:50.479Z,28.80
2022-12-20T18:58:19.849Z,28.39
2022-12-20T19:00:47.734Z,28.49
2022-12-20T19:03:16.182Z,29.00
2022-12-20T19:05:44.206Z,28.56
2022-12-20T19:08:12.127Z,28.80
2022-12-20T19:10:39.983Z,28.64
2022-12-20T19:13:08.383Z,28.69
2022-12-20T19:15:37.999Z,28.55
2022-12-20T19:18:06.820Z,28.69
2022-12-20T19:20:35.936Z,28.65
2022-12-20T19:23:04.239Z,28.99
2022-12-20T19:25:34.123Z,28.52
2022-12-20T19:28:01.989Z,29.04
2022-12-20T19:30:30.095Z,28.52
2022-12-20T19:32:59.905Z,28.42
2022-12-20T19:35:54.796Z,28.60
2022-12-20T19:38:15.672Z,28.70
2022-12-20T19:40:43.669Z,29.00
2022-12-20T19:43:11.871Z,29.02
2022-12-20T19:45:39.760Z,28.43
2022-12-20T19:48:09.096Z,28.68
2022-12-20T19:50:37.007Z,28.77
2022-12-20T19:53:05.583Z,29.03
2022-12-20T19:55:33.520Z,29.10
2022-12-20T19:58:01.445Z,28.96
2022-12-20T20:00:29.319Z,28.86
2022-12-20T20:02:57.830Z,28.89
2022-12-20T20:05:27.309Z,28.60
2022-12-20T20:07:55.200Z,28.67
2022-12-20T20:10:23.110Z,29.02
2022-12-20T20:12:51.577Z,29.02
2022-12-20T20:15:19.457Z,28.84
2022-12-20T20:17:47.345Z,28.56
2022-12-20T20:20:15.335Z,28.60
2022-12-20T20:22:44.982Z,28.67
2022-12-20T20:25:12.922Z,28.65
2022-12-20T20:27:40.889Z,28.86
2022-12-20T20:30:14.515Z,29.09
2022-12-20T20:32:42.906Z,28.83
2022-12-20T20:35:11.289Z,28.73
2022-12-20T20:37:39.901Z,29.08
2022-12-20T20:40:10.634Z,28.88
2022-12-20T20:42:38.980Z,28.83
2022-12-20T20:45:09.959Z,28.95
2022-12-20T20:47:37.824Z,28.98
2022-12-20T20:50:06.877Z,29.10
2022-12-20T20:52:35.208Z,28.81
2022-12-20T20:55:03.074Z,28.94
2022-12-20T20:57:32.476Z,28.78
2022-12-20T21:00:00.471Z,29.03
2022-12-20T21:02:28.894Z,28.95
2022-12-20T21:05:35.590Z,28.98
2022-12-20T21:07:45.443Z,29.19
2022-12-20T21:10:13.585Z,28.99
2022-12-20T21:12:43.291Z,28.90
2022-12-20T21:15:22.496Z,29.36
2022-12-20T21:17:51.384Z,28.90
2022-12-20T21:20:23.982Z,29.15
2022-12-20T21:22:55.324Z,28.85
2022-12-20T21:25:23.229Z,29.28
2022-12-20T21:27:52.732Z,28.83
2022-12-20T21:30:21.208Z,29.31
2022-12-20T21:32:49.243Z,28.98
2022-12-20T21:35:17.523Z,29.33
2022-12-20T21:37:46.000Z,28.90
2022-12-20T21:40:14.871Z,29.15
2022-12-20T21:42:43.242Z,29.18
2022-12-20T21:45:12.877Z,29.19
2022-12-20T21:47:40.879Z,28.75
2022-12-20T21:50:09.700Z,28.83
2022-12-20T21:52:39.970Z,29.27
2022-12-20T21:55:08.659Z,28.81
2022-12-20T21:57:36.567Z,28.81
2022-12-20T22:00:05.933Z,29.24
2022-12-20T22:02:36.755Z,29.32
2022-12-20T22:05:05.367Z,29.18
2022-12-20T22:07:33.353Z,29.09
2022-12-20T22:10:01.516Z,29.08
2022-12-20T22:12:30.659Z,28.89
2022-12-20T22:14:58.614Z,29.14
2022-12-20T22:17:28.123Z,29.07
2022-12-20T22:19:57.792Z,29.27
2022-12-20T22:22:26.197Z,28.84
2022-12-20T22:24:54.762Z,28.88
2022-12-20T22:27:22.777Z,28.89
2022-12-20T22:29:51.228Z,29.39
2022-12-20T22:32:19.329Z,29.06
2022-12-20T22:34:47.507Z,29.06
2022-12-20T22:37:16.754Z,29.48
2022-12-20T22:39:44.979Z,28.97
2022-12-20T22:42:13.197Z,28.98
2022-12-20T22:44:41.447Z,29.16
2022-12-20T22:47:09.666Z,28.95
2022-12-20T22:49:37.592Z,28.95
2022-12-20T22:52:07.613Z,29.32
2022-12-20T22:54:37.641Z,29.21
2022-12-20T22:57:05.481Z,29.25
2022-12-20T22:59:34.725Z,28.95
2022-12-20T23:02:02.834Z,29.38
2022-12-20T23:04:31.187Z,29.27
2022-12-20T23:06:59.059Z,29.46
2022-12-20T23:09:27.291Z,29.01
2022-12-20T23:12:14.450Z,29.49
2022-12-20T23:15:03.761Z,28.96
2022-12-20T23:17:33.419Z,29.02
2022-12-20T23:20:18.930Z,29.29
2022-12-20T23:22:46.808Z,28.97
2022-12-20T23:25:15.623Z,29.46
2022-12-20T23:27:45.745Z,29.00
2022-12-20T23:30:14.978Z,29.25
2022-12-20T23:32:44.364Z,28.92
2022-12-20T23:35:12.996Z,29.09
2022-12-20T23:37:40.939Z,29.29
2022-12-20T23:40:09.863Z,29.32
2022-12-20T23:42:38.112Z,29.29
2022-12-20T23:45:10.534Z,29.10
2022-12-20T23:47:38.448Z,29.14
2022-12-20T23:50:07.409Z,29.10
2022-12-20T23:52:35.591Z,29.27
2022-12-20T23:55:03.508Z,29.56
2022-12-20T23:57:32.478Z,29.01
